Terminal Aerodrome Forecast
Issued by NWS

Home | Current Version | Previous Version | Text Only | Print | Product List | Glossary On
Versions: 1 2 3 4 5 6 7 8 9 10 11 12 13 14 15 16 17
000
FTUS44 KBMX 260500
TAFMGM
TAF
KMGM 260520Z 2606/2706 32007KT P6SM BKN050 OVC100
     FM261200 30005KT P6SM SCT150
     FM261700 28010KT P6SM SKC
     FM262200 22008KT P6SM SCT150=

USA.gov is the U.S. government's official web portal to all federal, state and local government web resources and services.